.
WxDataArchive / Data Records for 2014-08-08
2014-08-07 August 2014 2014-08-09

Data Records for Friday, 08 August 2014

Time	Temp	Chill	HIndex	Humid	Dewpt	 Wind 	HiWind	WindDir	Rain 	Barom
-----	----	-----	------	-----	-----	------	------	-------	-----	-----
00:00	63.4	63.4	63.4	88	59.8	0	0	---	0.00	30.044 
00:05	63.4	63.4	63.4	88	59.8	0	0	---	0.00	30.044 
00:10	63.2	63.2	63.2	88	59.6	0	0	---	0.00	30.044 
00:15	63.2	63.2	63.2	88	59.6	0	0	---	0.00	30.044 
00:20	63.1	63.1	63.1	88	59.5	0	0	---	0.00	30.044 
00:25	62.9	62.9	62.9	88	59.3	0	0	---	0.00	30.044 
00:30	62.9	62.9	62.9	88	59.3	0	0	---	0.00	30.050 
00:35	62.7	62.7	62.7	89	59.4	0	0	---	0.00	30.050 
00:40	62.6	62.6	62.6	89	59.3	0	0	---	0.00	30.050 
00:45	62.6	62.6	62.6	89	59.3	0	0	---	0.00	30.052 
00:50	62.4	62.4	62.4	89	59.1	0	0	---	0.00	30.052 
00:55	62.4	62.4	62.4	89	59.1	0	0	---	0.00	30.052 
01:00	62.3	62.3	62.3	89	59.0	0	0	---	0.00	30.050 
01:05	62.1	62.1	62.1	90	59.1	0	0	---	0.00	30.050 
01:10	62.1	62.1	62.1	90	59.1	0	0	---	0.00	30.050 
01:15	62.1	62.1	62.1	90	59.1	0	0	---	0.00	30.049 
01:20	62.0	62.0	62.0	90	59.0	0	0	---	0.00	30.049 
01:25	62.0	62.0	62.0	91	59.3	0	0	---	0.00	30.049 
01:30	61.8	61.8	61.8	91	59.1	0	0	---	0.00	30.050 
01:35	61.6	61.6	61.6	91	58.9	0	0	---	0.00	30.050 
01:40	61.5	61.5	61.5	91	58.8	0	0	---	0.00	30.050 
01:45	61.3	61.3	61.3	91	58.6	0	0	---	0.00	30.052 
01:50	61.2	61.2	61.2	91	58.5	0	0	---	0.00	30.052 
01:55	61.0	61.0	61.0	91	58.4	0	0	---	0.00	30.052 
02:00	61.0	61.0	61.0	92	58.7	0	0	---	0.00	30.052 
02:05	60.9	60.9	60.9	92	58.6	0	0	---	0.00	30.052 
02:10	60.9	60.9	60.9	92	58.6	0	0	---	0.00	30.052 
02:15	60.7	60.7	60.7	92	58.4	0	0	---	0.00	30.049 
02:20	60.5	60.5	60.5	92	58.2	0	0	---	0.00	30.049 
02:25	60.4	60.4	60.4	92	58.1	0	0	---	0.00	30.049 
02:30	60.4	60.4	60.4	92	58.1	0	0	---	0.00	30.050 
02:35	60.2	60.2	60.2	92	57.9	0	0	---	0.00	30.050 
02:40	60.2	60.2	60.2	92	57.9	0	0	---	0.00	30.050 
02:45	60.2	60.2	60.2	92	57.9	0	0	---	0.00	30.051 
02:50	60.2	60.2	60.2	92	57.9	0	0	---	0.00	30.051 
02:55	60.1	60.1	60.1	93	58.1	0	0	---	0.00	30.051 
03:00	59.9	59.9	59.9	92	57.6	0	0	---	0.00	30.051 
03:05	59.8	59.8	59.8	93	57.8	0	0	---	0.00	30.051 
03:10	59.6	59.6	59.6	93	57.6	0	0	---	0.00	30.051 
03:15	59.5	59.5	59.5	93	57.5	0	0	---	0.00	30.051 
03:20	59.3	59.3	59.3	93	57.3	0	0	---	0.00	30.051 
03:25	59.3	59.3	59.3	93	57.3	0	0	---	0.00	30.051 
03:30	59.2	59.2	59.2	93	57.2	0	0	---	0.00	30.049 
03:35	59.0	59.0	59.0	93	57.0	0	0	---	0.00	30.049 
03:40	58.9	58.9	58.9	93	56.9	0	0	---	0.00	30.049 
03:45	58.7	58.7	58.7	93	56.7	0	0	---	0.00	30.050 
03:50	58.7	58.7	58.7	93	56.7	0	0	---	0.00	30.050 
03:55	58.9	58.9	58.9	93	56.9	0	0	---	0.00	30.050 
04:00	58.7	58.7	58.7	93	56.7	0	0	---	0.00	30.050 
04:05	58.7	58.7	58.7	93	56.7	0	0	---	0.00	30.050 
04:10	58.6	58.6	58.6	93	56.6	0	0	---	0.00	30.050 
04:15	58.6	58.6	58.6	93	56.6	0	1	90	0.00	30.048 
04:20	58.7	58.7	58.7	93	56.7	0	1	90	0.00	30.048 
04:25	58.7	58.7	58.7	93	56.7	0	1	90	0.00	30.048 
04:30	58.7	58.7	58.7	92	56.4	0	1	90	0.00	30.051 
04:35	58.7	58.7	58.7	92	56.4	0	0	---	0.00	30.051 
04:40	58.7	58.7	58.7	92	56.4	0	0	---	0.00	30.051 
04:45	58.6	58.6	58.6	92	56.3	0	0	---	0.00	30.054 
04:50	58.6	58.6	58.6	92	56.3	0	0	---	0.00	30.054 
04:55	58.4	58.4	58.4	92	56.1	0	0	---	0.00	30.054 
05:00	58.4	58.4	58.4	92	56.1	0	1	90	0.00	30.056 
05:05	58.4	58.4	58.4	91	55.8	0	1	90	0.00	30.056 
05:10	58.6	58.6	58.6	91	56.0	0	1	90	0.00	30.056 
05:15	58.6	58.6	58.6	90	55.7	0	0	---	0.00	30.055 
05:20	58.6	58.6	58.6	90	55.7	0	0	---	0.00	30.055 
05:25	58.6	58.6	58.6	90	55.7	0	0	---	0.00	30.055 
05:30	58.4	58.4	58.4	90	55.5	0	0	---	0.00	30.058 
05:35	58.3	58.3	58.3	90	55.4	0	0	---	0.00	30.058 
05:40	58.3	58.3	58.3	90	55.4	0	0	---	0.00	30.058 
05:45	58.3	58.3	58.3	90	55.4	0	0	---	0.00	30.058 
05:50	58.1	58.1	58.1	90	55.2	0	0	---	0.00	30.058 
05:55	58.3	58.3	58.3	90	55.4	0	1	90	0.00	30.058 
06:00	58.3	58.3	58.3	90	55.4	0	0	---	0.00	30.063 
06:05	58.3	58.3	58.3	89	55.1	0	2	90	0.00	30.063 
06:10	58.3	58.3	58.3	89	55.1	0	2	90	0.00	30.063 
06:15	58.4	58.4	58.4	88	54.9	0	3	90	0.00	30.057 
06:20	58.3	58.3	58.3	88	54.8	0	0	---	0.00	30.057 
06:25	58.3	58.3	58.3	88	54.8	0	0	---	0.00	30.057 
06:30	58.1	58.1	58.1	88	54.6	0	0	---	0.00	30.066 
06:35	58.0	58.0	58.0	88	54.5	0	0	---	0.00	30.066 
06:40	58.0	58.0	58.0	88	54.5	0	0	---	0.00	30.066 
06:45	57.8	57.8	57.8	88	54.3	0	0	---	0.00	30.070 
06:50	57.6	57.6	57.6	88	54.1	0	0	---	0.00	30.070 
06:55	57.6	57.6	57.6	88	54.1	0	1	90	0.00	30.070 
07:00	57.6	57.6	57.6	89	54.4	0	1	90	0.00	30.071 
07:05	57.6	57.6	57.6	89	54.4	0	1	90	0.00	30.071 
07:10	57.6	57.6	57.6	88	54.1	0	0	---	0.00	30.071 
07:15	57.6	57.6	57.6	88	54.1	0	0	---	0.00	30.074 
07:20	57.8	57.8	57.8	88	54.3	0	1	90	0.00	30.074 
07:25	57.8	57.8	57.8	88	54.3	0	1	90	0.00	30.074 
07:30	58.0	58.0	58.0	88	54.5	0	1	90	0.00	30.077 
07:35	58.1	58.1	58.1	88	54.6	0	1	90	0.00	30.077 
07:40	58.3	58.3	58.3	88	54.8	0	0	---	0.00	30.077 
07:45	58.3	58.3	58.3	88	54.8	0	1	90	0.00	30.082 
07:50	58.4	58.4	58.4	87	54.5	0	0	---	0.00	30.082 
07:55	58.9	58.9	58.9	88	55.3	0	0	---	0.00	30.082 
08:00	59.5	59.5	59.5	86	55.3	0	2	90	0.00	30.085 
08:05	60.1	60.1	60.1	85	55.6	0	1	90	0.00	30.085 
08:10	60.9	60.9	60.9	83	55.7	0	2	90	0.00	30.085 
08:15	61.2	61.2	61.2	81	55.3	1	3	90	0.00	30.090 
08:20	61.5	61.5	61.5	81	55.6	1	3	90	0.00	30.090 
08:25	62.0	62.0	62.0	81	56.1	0	1	90	0.00	30.090 
08:30	62.3	62.3	62.3	80	56.0	0	3	90	0.00	30.096 
08:35	62.7	62.7	62.7	79	56.1	0	3	90	0.00	30.096 
08:40	63.4	63.4	63.4	79	56.8	0	1	90	0.00	30.096 
08:45	63.9	63.9	63.9	77	56.5	0	2	90	0.00	30.098 
08:50	64.2	64.2	64.2	77	56.8	0	2	90	0.00	30.098 
08:55	64.5	64.5	64.5	76	56.8	1	3	90	0.00	30.098 
09:00	64.8	64.8	64.8	75	56.7	1	4	90	0.00	30.090 
09:05	65.2	65.2	65.2	76	57.4	0	2	90	0.00	30.090 
09:10	65.5	65.5	65.5	74	57.0	1	4	90	0.00	30.090 
09:15	65.8	65.8	65.8	74	57.3	1	3	90	0.00	30.091 
09:20	66.1	66.1	66.1	74	57.6	1	4	90	0.00	30.091 
09:25	66.6	66.6	66.6	74	58.0	1	4	90	0.00	30.091 
09:30	66.8	66.8	66.8	73	57.9	1	4	90	0.00	30.093 
09:35	67.1	67.1	67.1	72	57.8	1	4	90	0.00	30.093 
09:40	67.6	67.6	67.6	73	58.6	0	2	90	0.00	30.093 
09:45	68.3	68.3	68.3	73	59.3	0	3	90	0.00	30.101 
09:50	68.8	68.8	68.8	72	59.4	1	2	90	0.00	30.101 
09:55	69.4	69.4	69.4	70	59.2	1	4	90	0.00	30.101 
10:00	69.8	69.8	69.8	71	60.0	1	4	90	0.00	30.084 
10:05	69.9	69.9	69.9	69	59.3	2	4	90	0.00	30.084 
10:10	70.1	70.1	70.1	70	59.8	2	4	90	0.00	30.084 
10:15	70.3	70.3	70.3	70	60.0	1	4	90	0.00	30.080 
10:20	70.8	70.8	70.8	68	59.7	1	4	90	0.00	30.080 
10:25	70.9	70.9	70.9	69	60.2	2	4	90	0.00	30.080 
10:30	71.5	71.5	71.5	68	60.4	2	7	90	0.00	30.080 
10:35	71.8	71.8	71.8	65	59.4	2	4	45	0.00	30.080 
10:40	72.5	72.5	72.5	65	60.0	2	5	68	0.00	30.080 
10:45	73.2	73.2	73.2	65	60.7	1	4	68	0.00	30.072 
10:50	74.0	74.0	74.0	59	58.7	2	6	68	0.00	30.072 
10:55	74.4	74.4	74.4	60	59.6	2	6	68	0.00	30.072 
11:00	74.6	74.6	74.6	60	59.8	2	5	68	0.00	30.069 
11:05	75.1	75.1	77.4	60	60.2	1	4	112	0.00	30.069 
11:10	75.8	75.8	77.9	58	59.9	1	4	112	0.00	30.069 
11:15	76.5	76.5	78.4	58	60.6	2	5	90	0.00	30.073 
11:20	76.5	76.5	78.4	56	59.6	2	5	90	0.00	30.073 
11:25	76.8	76.8	78.6	58	60.9	2	5	90	0.00	30.073 
11:30	77.2	77.2	78.9	57	60.8	1	7	68	0.00	30.068 
11:35	77.4	77.4	79.0	55	59.9	1	5	68	0.00	30.068 
11:40	77.4	77.4	79.0	55	59.9	2	5	68	0.00	30.068 
11:45	77.6	77.6	79.1	54	59.6	1	5	112	0.00	30.069 
11:50	77.6	77.6	79.1	53	59.1	2	6	90	0.00	30.069 
11:55	77.7	77.7	79.0	50	57.6	2	5	90	0.00	30.069 
12:00	77.7	77.7	79.1	51	58.1	2	9	90	0.00	30.067 
12:05	77.7	77.7	79.1	51	58.1	2	6	68	0.00	30.067 
12:10	78.1	78.1	79.3	50	57.9	2	6	68	0.00	30.067 
12:15	78.3	78.3	79.4	49	57.5	3	8	90	0.00	30.067 
12:20	78.1	78.1	79.3	49	57.4	3	7	68	0.00	30.067 
12:25	78.3	78.3	79.3	48	57.0	2	5	90	0.00	30.067 
12:30	78.5	78.5	79.5	49	57.7	3	9	90	0.00	30.064 
12:35	78.8	78.8	79.7	49	58.0	2	7	90	0.00	30.064 
12:40	79.2	79.2	80.1	50	58.9	2	5	90	0.00	30.064 
12:45	79.2	79.2	79.8	45	56.0	2	5	112	0.00	30.058 
12:50	79.4	79.4	79.8	44	55.6	2	6	90	0.00	30.058 
12:55	79.2	79.2	79.8	45	56.0	3	10	90	0.00	30.058 
13:00	79.4	79.4	80.0	46	56.8	2	4	68	0.00	30.059 
13:05	79.6	79.6	80.0	44	55.7	2	6	90	0.00	30.059 
13:10	79.8	79.8	80.2	45	56.5	2	5	90	0.00	30.059 
13:15	79.9	79.9	80.2	44	56.0	2	6	68	0.00	30.055 
13:20	79.9	79.9	80.2	44	56.0	2	8	90	0.00	30.055 
13:25	79.9	79.9	80.1	43	55.4	3	7	90	0.00	30.055 
13:30	79.9	79.9	79.9	41	54.1	2	7	90	0.00	30.058 
13:35	80.3	80.3	80.4	43	55.7	2	9	90	0.00	30.058 
13:40	80.1	80.1	80.3	44	56.2	3	9	68	0.00	30.058 
13:45	80.3	80.3	80.2	41	54.4	2	6	90	0.00	30.057 
13:50	80.1	80.1	80.1	41	54.2	3	6	68	0.00	30.057 
13:55	80.1	80.1	80.3	43	55.6	2	7	90	0.00	30.057 
14:00	80.3	80.3	80.5	44	56.4	1	5	90	0.00	30.056 
14:05	80.5	80.5	80.6	43	55.9	2	5	68	0.00	30.056 
14:10	80.5	80.5	80.3	40	53.9	3	7	112	0.00	30.056 
14:15	80.3	80.3	80.4	43	55.7	2	8	68	0.00	30.052 
14:20	80.7	80.7	80.7	43	56.1	3	10	112	0.00	30.052 
14:25	81.1	81.1	80.9	42	55.8	1	5	68	0.00	30.052 
14:30	81.1	81.1	80.9	42	55.8	2	7	90	0.00	30.049 
14:35	81.2	81.2	81.0	42	55.9	2	7	90	0.00	30.049 
14:40	81.1	81.1	80.8	41	55.1	4	9	90	0.00	30.049 
14:45	80.9	80.9	80.8	42	55.6	2	6	90	0.00	30.048 
14:50	81.1	81.1	80.8	41	55.1	2	5	112	0.00	30.048 
14:55	81.2	81.2	81.1	43	56.5	2	6	68	0.00	30.048 
15:00	81.4	81.4	81.1	41	55.4	2	6	68	0.00	30.048 
15:05	81.6	81.6	81.3	42	56.3	2	8	112	0.00	30.048 
15:10	81.4	81.4	81.0	40	54.7	3	7	90	0.00	30.048 
15:15	81.4	81.4	81.0	40	54.7	1	9	90	0.00	30.038 
15:20	81.6	81.6	81.2	41	55.6	2	9	68	0.00	30.038 
15:25	81.2	81.2	81.0	42	55.9	3	10	90	0.00	30.038 
15:30	81.2	81.2	80.9	41	55.2	2	7	112	0.00	30.034 
15:35	81.4	81.4	81.2	42	56.1	3	7	112	0.00	30.034 
15:40	81.6	81.6	81.3	42	56.3	1	5	90	0.00	30.034 
15:45	81.4	81.4	80.9	39	54.0	4	7	90	0.00	30.033 
15:50	81.1	81.1	80.8	41	55.1	4	7	90	0.00	30.033 
15:55	81.1	81.1	80.8	41	55.1	2	5	90	0.00	30.033 
16:00	81.4	81.4	81.1	41	55.4	1	4	112	0.00	30.023 
16:05	81.8	81.8	81.8	44	57.7	1	5	90	0.00	30.023 
16:10	82.0	82.0	81.6	41	55.9	3	6	90	0.00	30.023 
16:15	81.4	81.4	81.1	41	55.4	3	6	68	0.00	30.018 
16:20	81.6	81.6	81.5	43	56.9	1	5	68	0.00	30.018 
16:25	81.4	81.4	81.0	40	54.7	2	5	90	0.00	30.018 
16:30	81.2	81.2	81.0	42	55.9	3	6	90	0.00	30.016 
16:35	81.4	81.4	81.1	41	55.4	2	5	90	0.00	30.016 
16:40	81.4	81.4	81.1	41	55.4	2	6	90	0.00	30.016 
16:45	81.2	81.2	80.9	41	55.2	2	7	112	0.00	30.018 
16:50	81.2	81.2	80.9	41	55.2	2	6	112	0.00	30.018 
16:55	81.2	81.2	81.0	42	55.9	2	5	112	0.00	30.018 
17:00	81.2	81.2	80.8	40	54.6	1	3	68	0.00	30.019 
17:05	81.4	81.4	81.2	42	56.1	1	5	90	0.00	30.019 
17:10	81.4	81.4	81.1	41	55.4	1	5	90	0.00	30.019 
17:15	81.2	81.2	80.9	41	55.2	2	7	90	0.00	30.019 
17:20	81.2	81.2	80.7	39	53.9	2	5	135	0.00	30.019 
17:25	81.2	81.2	80.8	40	54.6	2	6	112	0.00	30.019 
17:30	81.2	81.2	80.9	41	55.2	1	5	90	0.00	30.019 
17:35	80.9	80.9	80.6	40	54.3	3	7	68	0.00	30.019 
17:40	80.7	80.7	80.6	42	55.4	2	5	90	0.00	30.019 
17:45	80.7	80.7	80.8	44	56.7	1	4	68	0.00	30.017 
17:50	80.7	80.7	80.6	42	55.4	2	6	90	0.00	30.017 
17:55	80.5	80.5	80.3	40	53.9	3	7	90	0.00	30.017 
18:00	80.3	80.3	80.1	40	53.8	3	6	68	0.00	30.015 
18:05	80.3	80.3	80.4	43	55.7	1	6	68	0.00	30.015 
18:10	80.5	80.5	80.5	42	55.3	1	4	90	0.00	30.015 
18:15	80.7	80.7	80.5	41	54.8	1	4	90	0.00	30.013 
18:20	80.5	80.5	80.6	43	55.9	1	5	90	0.00	30.013 
18:25	80.3	80.3	80.1	40	53.8	2	5	90	0.00	30.013 
18:30	79.8	79.8	79.9	41	54.0	2	4	90	0.00	30.013 
18:35	79.4	79.4	79.6	41	53.6	2	6	90	0.00	30.013 
18:40	79.2	79.2	79.5	42	54.1	2	7	90	0.00	30.013 
18:45	79.2	79.2	79.6	43	54.7	1	2	135	0.00	30.017 
18:50	79.2	79.2	79.5	41	53.4	2	5	68	0.00	30.017 
18:55	79.0	79.0	79.4	42	53.9	2	5	68	0.00	30.017 
19:00	78.8	78.8	79.3	42	53.7	1	3	90	0.00	30.016 
19:05	78.8	78.8	79.4	43	54.4	1	3	90	0.00	30.016 
19:10	78.6	78.6	79.2	43	54.2	2	5	68	0.00	30.016 
19:15	78.5	78.5	79.2	43	54.1	2	4	68	0.00	30.019 
19:20	78.3	78.3	79.1	43	53.9	2	5	68	0.00	30.019 
19:25	78.1	78.1	79.0	44	54.4	1	4	68	0.00	30.019 
19:30	77.9	77.9	78.9	44	54.2	1	4	68	0.00	30.020 
19:35	77.6	77.6	78.8	45	54.6	1	3	90	0.00	30.020 
19:40	77.4	77.4	78.6	45	54.4	2	3	90	0.00	30.020 
19:45	77.0	77.0	78.4	45	54.0	2	4	90	0.00	30.022 
19:50	76.8	76.8	78.4	46	54.4	1	3	90	0.00	30.022 
19:55	76.5	76.5	78.3	48	55.3	0	3	90	0.00	30.022 
20:00	76.1	76.1	78.1	47	54.4	1	3	90	0.00	30.024 
20:05	76.0	76.0	78.0	48	54.9	1	3	90	0.00	30.024 
20:10	75.6	75.6	77.9	48	54.5	1	4	90	0.00	30.024 
20:15	75.4	75.4	77.8	48	54.3	1	4	90	0.00	30.022 
20:20	75.1	75.1	77.7	49	54.6	1	4	90	0.00	30.022 
20:25	74.7	74.7	74.7	50	54.8	1	3	90	0.00	30.022 
20:30	74.4	74.4	74.4	50	54.5	0	1	90	0.00	30.022 
20:35	74.0	74.0	74.0	51	54.7	0	2	90	0.00	30.022 
20:40	73.7	73.7	73.7	52	55.0	0	1	90	0.00	30.022 
20:45	73.3	73.3	73.3	53	55.1	0	1	90	0.00	30.024 
20:50	73.0	73.0	73.0	53	54.8	0	0	---	0.00	30.024 
20:55	72.7	72.7	72.7	53	54.6	0	1	90	0.00	30.024 
21:00	72.3	72.3	72.3	54	54.7	0	1	90	0.00	30.023 
21:05	72.0	72.0	72.0	55	54.9	0	2	90	0.00	30.023 
21:10	71.8	71.8	71.8	55	54.7	1	4	90	0.00	30.023 
21:15	71.6	71.6	71.6	56	55.1	0	2	90	0.00	30.026 
21:20	71.5	71.5	71.5	56	55.0	1	3	90	0.00	30.026 
21:25	71.3	71.3	71.3	57	55.3	0	3	90	0.00	30.026 
21:30	71.1	71.1	71.1	56	54.6	0	3	90	0.00	30.030 
21:35	70.9	70.9	70.9	57	54.9	0	2	90	0.00	30.030 
21:40	70.6	70.6	70.6	57	54.6	0	2	90	0.00	30.030 
21:45	70.4	70.4	70.4	58	54.9	0	3	90	0.00	30.034 
21:50	70.3	70.3	70.3	58	54.8	1	3	90	0.00	30.034 
21:55	70.1	70.1	70.1	58	54.6	0	2	90	0.00	30.034 
22:00	69.8	69.8	69.8	58	54.3	1	5	90	0.00	30.037 
22:05	69.6	69.6	69.6	58	54.2	0	2	90	0.00	30.037 
22:10	69.3	69.3	69.3	59	54.3	0	2	90	0.00	30.037 
22:15	69.1	69.1	69.1	59	54.2	0	2	90	0.00	30.038 
22:20	68.9	68.9	68.9	60	54.4	0	2	90	0.00	30.038 
22:25	68.6	68.6	68.6	60	54.1	0	3	90	0.00	30.038 
22:30	68.4	68.4	68.4	61	54.4	0	2	90	0.00	30.044 
22:35	68.3	68.3	68.3	61	54.3	0	1	90	0.00	30.044 
22:40	68.1	68.1	68.1	61	54.1	1	4	90	0.00	30.044 
22:45	67.9	67.9	67.9	62	54.4	1	3	90	0.00	30.045 
22:50	67.6	67.6	67.6	62	54.1	0	2	90	0.00	30.045 
22:55	67.4	67.4	67.4	63	54.4	0	2	90	0.00	30.045 
23:00	67.3	67.3	67.3	64	54.7	0	2	90	0.00	30.047 
23:05	66.9	66.9	66.9	64	54.3	0	3	90	0.00	30.047 
23:10	66.8	66.8	66.8	65	54.6	0	1	90	0.00	30.047 
23:15	66.4	66.4	66.4	65	54.3	0	3	90	0.00	30.046 
23:20	66.3	66.3	66.3	66	54.6	0	1	90	0.00	30.046 
23:25	66.1	66.1	66.1	67	54.8	0	2	90	0.00	30.046 
23:30	66.0	66.0	66.0	67	54.7	0	1	90	0.00	30.048 
23:35	65.6	65.6	65.6	68	54.7	0	0	---	0.00	30.048 
23:40	65.5	65.5	65.5	68	54.7	0	1	90	0.00	30.048 
23:45	65.2	65.2	65.2	69	54.8	0	0	---	0.00	30.052 
23:50	65.0	65.0	65.0	70	55.0	0	0	---	0.00	30.052 
23:55	64.8	64.8	64.8	70	54.8	0	0	---	0.00	30.052 

CoCoRaHS
IN-AL-39
A2 Web Hosting
Creative Commons License
GoDaddy
search engine by freefind advanced

loaded 2018-11-15 03:38:41 • last modified 2010-11-18 10:43:29
Privacy PolicyDisclaimer
• wx.awcolley.com is powered by PmWiki v.2002016 •
• all content (unless otherwise noted) © 2018 A W Colley